LFSB - Basel
METEO Reports
METAR
LFSB
070600Z 00000KT 9999 BKN033 BKN050 M00/M03 Q1023 NOSIG
LFSB
070530Z AUTO 29002KT 9999 BKN036 BKN047 BKN054 00/M02 Q1024 NOSIG
TAF
TAF LFSB
070500Z 0706/0806 14004KT 9999 SCT035 BKN050
PROB40 TEMPO 0713/0721 -SHRA SCT030TCU
BECMG 0716/0718 34006KT

Charts
Charts - LFSB
Basle
  FilenameReleased
E   All charts provided by SIA21.05.2017

Sceneries
Sceneries - LFSB
Basle
  FilenameReleased
E Freeware Euroairport Basel-Mulhouse-Freiburg20.09.2011
E Freeware XPFR - EuroAirport Bale Mulhouse XP1121.08.2018
E Payware France VFR - Bâle-Mulhouse FSX24.04.2020
E Payware FSDT EuroAirport Basel Mulhouse Freiburg P3DV4.4+ & MSFS10.01.2020
E Payware JustSim Euroairport Basel Mulhouse Freiburg MSFS29.10.2020
E Payware JustSim Euroairport Basel Mulhouse Freiburg P3Dv4.4+24.04.2020
E Payware JustSim Euroairport Basel Mulhouse Freiburg XP1124.04.2020

Stations
KennzeichenNameFrequenz
LSAS_CTR Swiss Radar 128.050 MHz
LSAS_A_CTR Swiss Radar 135.670 MHz
LSAS_B_CTR Swiss Radar 133.900 MHz
LSAS_C_CTR Swiss Radar 135.150 MHz
LSAS_D_CTR Swiss Radar 128.900 MHz
LSAS_F_CTR Swiss Radar 124.020 MHz
LSAS_G_CTR Swiss Radar 134.320 MHz
LSAS_H_CTR Swiss Radar 134.020 MHz
LSAS_J_CTR Swiss Radar 133.620 MHz
LSAS_U_CTR Swiss Radar 133.400 MHz
LSAS_V_CTR Swiss Radar 133.050 MHz
LSAS_I_CTR Swiss Information 124.700 MHz
LFSB_APP Basel Approach 119.350 MHz
LFSB_C_APP Basel Control 135.850 MHz
LFSB_TWR Basel Tower 118.300 MHz
LFSB_GND Basel Ground 121.600 MHz
LFSB_DEL Basel Delivery 120.500 MHz
LFSB_ATIS Basel ATIS 127.870 MHz


 

online atc

  • no controllers are online

bookings overview

events RSS

news RSS

  • Cross The Land Eastbound Voting

    04/18/20 07:59:09 z

    Airport Votings for the Cross The Land Eastbound 2020 are open now. To vote, ...

  • VA Meeting 2020

    03/17/20 15:08:00 z

    vACC Switzerland is happy to announce the next edition of our annualy VA ...

  • Audio For VATSIM

    10/13/19 19:04:16 z

    The VATSIM infrastructure will undergo an update in the next 24 hours. "Audio ...